sensor_id;sensor_type;location;lat;lon;timestamp;temperature;humidity
1948;DHT22;974;52.400;9.818;2023-12-04T00:01:56;-1.10;99.90
1948;DHT22;974;52.400;9.818;2023-12-04T00:04:25;-1.10;99.90
1948;DHT22;974;52.400;9.818;2023-12-04T00:06:50;-1.10;99.90
1948;DHT22;974;52.400;9.818;2023-12-04T00:09:16;-1.10;99.90
1948;DHT22;974;52.400;9.818;2023-12-04T00:11:42;-1.10;99.90
1948;DHT22;974;52.400;9.818;2023-12-04T00:14:07;-1.00;99.90
1948;DHT22;974;52.400;9.818;2023-12-04T00:16:34;-1.10;99.90
1948;DHT22;974;52.400;9.818;2023-12-04T00:19:00;-1.10;99.90
1948;DHT22;974;52.400;9.818;2023-12-04T00:21:26;-1.10;99.90
1948;DHT22;974;52.400;9.818;2023-12-04T00:23:51;-1.10;99.90
1948;DHT22;974;52.400;9.818;2023-12-04T00:26:17;-1.10;99.90
1948;DHT22;974;52.400;9.818;2023-12-04T00:28:43;-1.10;99.90
1948;DHT22;974;52.400;9.818;2023-12-04T00:31:08;-1.10;99.90
1948;DHT22;974;52.400;9.818;2023-12-04T00:33:34;-0.80;99.90
1948;DHT22;974;52.400;9.818;2023-12-04T00:36:00;-0.90;99.90
1948;DHT22;974;52.400;9.818;2023-12-04T00:38:28;-1.00;99.90
1948;DHT22;974;52.400;9.818;2023-12-04T00:40:56;-1.10;99.90
1948;DHT22;974;52.400;9.818;2023-12-04T00:43:22;-1.20;99.90
1948;DHT22;974;52.400;9.818;2023-12-04T00:45:51;-1.10;99.90
1948;DHT22;974;52.400;9.818;2023-12-04T00:48:16;-1.00;99.90
1948;DHT22;974;52.400;9.818;2023-12-04T00:50:42;-0.90;99.90
1948;DHT22;974;52.400;9.818;2023-12-04T00:53:10;-1.00;99.90
1948;DHT22;974;52.400;9.818;2023-12-04T00:55:36;-0.90;99.90
1948;DHT22;974;52.400;9.818;2023-12-04T00:58:02;-1.00;99.90
1948;DHT22;974;52.400;9.818;2023-12-04T01:00:28;-0.90;99.90
1948;DHT22;974;52.400;9.818;2023-12-04T01:02:53;-0.90;99.90
1948;DHT22;974;52.400;9.818;2023-12-04T01:05:19;-0.90;99.90
1948;DHT22;974;52.400;9.818;2023-12-04T01:07:45;-0.80;99.90
1948;DHT22;974;52.400;9.818;2023-12-04T01:10:10;-0.80;99.90
1948;DHT22;974;52.400;9.818;2023-12-04T01:12:36;-0.90;99.90
1948;DHT22;974;52.400;9.818;2023-12-04T01:15:02;-0.80;99.90
1948;DHT22;974;52.400;9.818;2023-12-04T01:17:28;-0.80;99.90
1948;DHT22;974;52.400;9.818;2023-12-04T01:19:54;-0.80;99.90
1948;DHT22;974;52.400;9.818;2023-12-04T01:22:19;-0.80;99.90
1948;DHT22;974;52.400;9.818;2023-12-04T01:24:45;-0.90;99.90
1948;DHT22;974;52.400;9.818;2023-12-04T01:27:11;-0.90;99.90
1948;DHT22;974;52.400;9.818;2023-12-04T01:29:37;-0.80;99.90
1948;DHT22;974;52.400;9.818;2023-12-04T01:32:02;-0.80;99.90
1948;DHT22;974;52.400;9.818;2023-12-04T01:34:28;-0.90;99.90
1948;DHT22;974;52.400;9.818;2023-12-04T01:36:53;-0.90;99.90
1948;DHT22;974;52.400;9.818;2023-12-04T01:39:19;-0.80;99.90
1948;DHT22;974;52.400;9.818;2023-12-04T01:41:44;-0.80;99.90
1948;DHT22;974;52.400;9.818;2023-12-04T01:44:10;-1.00;99.90
1948;DHT22;974;52.400;9.818;2023-12-04T01:46:38;-0.90;99.90
1948;DHT22;974;52.400;9.818;2023-12-04T01:49:04;-0.90;99.90
1948;DHT22;974;52.400;9.818;2023-12-04T01:51:30;-0.80;99.90
1948;DHT22;974;52.400;9.818;2023-12-04T01:53:59;-0.70;99.90
1948;DHT22;974;52.400;9.818;2023-12-04T01:56:24;-0.70;99.90
1948;DHT22;974;52.400;9.818;2023-12-04T01:58:50;-0.70;99.90
1948;DHT22;974;52.400;9.818;2023-12-04T02:01:16;-0.90;99.90
1948;DHT22;974;52.400;9.818;2023-12-04T02:03:43;-0.90;99.90
1948;DHT22;974;52.400;9.818;2023-12-04T02:06:09;-0.90;99.90
1948;DHT22;974;52.400;9.818;2023-12-04T02:08:35;-0.80;99.90
1948;DHT22;974;52.400;9.818;2023-12-04T02:11:00;-0.90;99.90
1948;DHT22;974;52.400;9.818;2023-12-04T02:13:26;-0.80;99.90
1948;DHT22;974;52.400;9.818;2023-12-04T02:15:54;-0.80;99.90
1948;DHT22;974;52.400;9.818;2023-12-04T02:18:22;-0.90;99.90
1948;DHT22;974;52.400;9.818;2023-12-04T02:20:51;-0.90;99.90
1948;DHT22;974;52.400;9.818;2023-12-04T02:23:16;-0.90;99.90
1948;DHT22;974;52.400;9.818;2023-12-04T02:25:42;-1.00;99.90
1948;DHT22;974;52.400;9.818;2023-12-04T02:28:10;-1.10;99.90
1948;DHT22;974;52.400;9.818;2023-12-04T02:30:38;-1.00;99.90
1948;DHT22;974;52.400;9.818;2023-12-04T02:33:06;-0.90;99.90
1948;DHT22;974;52.400;9.818;2023-12-04T02:35:34;-1.00;99.90
1948;DHT22;974;52.400;9.818;2023-12-04T02:38:01;-0.90;99.90
1948;DHT22;974;52.400;9.818;2023-12-04T02:40:27;-1.00;99.90
1948;DHT22;974;52.400;9.818;2023-12-04T02:42:52;-1.00;99.90
1948;DHT22;974;52.400;9.818;2023-12-04T02:45:18;-1.00;99.90
1948;DHT22;974;52.400;9.818;2023-12-04T02:47:43;-1.00;99.90
1948;DHT22;974;52.400;9.818;2023-12-04T02:50:09;-1.10;99.90
1948;DHT22;974;52.400;9.818;2023-12-04T02:52:37;-0.90;99.90
1948;DHT22;974;52.400;9.818;2023-12-04T02:55:08;-0.90;99.90
1948;DHT22;974;52.400;9.818;2023-12-04T02:57:33;-0.80;99.90
1948;DHT22;974;52.400;9.818;2023-12-04T03:00:02;-0.90;99.90
1948;DHT22;974;52.400;9.818;2023-12-04T03:02:29;-1.00;99.90
1948;DHT22;974;52.400;9.818;2023-12-04T03:04:57;-0.90;99.90
1948;DHT22;974;52.400;9.818;2023-12-04T03:07:23;-0.80;99.90
1948;DHT22;974;52.400;9.818;2023-12-04T03:09:49;-0.80;99.90
1948;DHT22;974;52.400;9.818;2023-12-04T03:12:16;-0.80;99.90
1948;DHT22;974;52.400;9.818;2023-12-04T03:14:41;-0.80;99.90
1948;DHT22;974;52.400;9.818;2023-12-04T03:17:10;-0.70;99.90
1948;DHT22;974;52.400;9.818;2023-12-04T03:19:35;-0.70;99.90
1948;DHT22;974;52.400;9.818;2023-12-04T03:22:01;-0.70;99.90
1948;DHT22;974;52.400;9.818;2023-12-04T03:24:27;-0.80;99.90
1948;DHT22;974;52.400;9.818;2023-12-04T03:26:52;-0.60;99.90
1948;DHT22;974;52.400;9.818;2023-12-04T03:29:18;-0.60;99.90
1948;DHT22;974;52.400;9.818;2023-12-04T03:31:43;-0.60;99.90
1948;DHT22;974;52.400;9.818;2023-12-04T03:34:09;-0.50;99.90
1948;DHT22;974;52.400;9.818;2023-12-04T03:36:34;-0.60;99.90
1948;DHT22;974;52.400;9.818;2023-12-04T03:39:00;-0.70;99.90
1948;DHT22;974;52.400;9.818;2023-12-04T03:41:25;-0.70;99.90
1948;DHT22;974;52.400;9.818;2023-12-04T03:43:51;-0.80;99.90
1948;DHT22;974;52.400;9.818;2023-12-04T03:46:16;-0.70;99.90
1948;DHT22;974;52.400;9.818;2023-12-04T03:48:41;-0.60;99.90
1948;DHT22;974;52.400;9.818;2023-12-04T03:51:07;-0.70;99.90
1948;DHT22;974;52.400;9.818;2023-12-04T03:53:33;-0.70;99.90
1948;DHT22;974;52.400;9.818;2023-12-04T03:55:58;-0.70;99.90
1948;DHT22;974;52.400;9.818;2023-12-04T03:58:24;-0.70;99.90
1948;DHT22;974;52.400;9.818;2023-12-04T04:00:50;-0.70;99.90
1948;DHT22;974;52.400;9.818;2023-12-04T04:03:15;-0.50;99.90
1948;DHT22;974;52.400;9.818;2023-12-04T04:05:41;-0.50;99.90
1948;DHT22;974;52.400;9.818;2023-12-04T04:08:06;-0.50;99.90
1948;DHT22;974;52.400;9.818;2023-12-04T04:10:33;-0.50;99.90
1948;DHT22;974;52.400;9.818;2023-12-04T04:12:59;-0.50;99.90
1948;DHT22;974;52.400;9.818;2023-12-04T04:15:25;-0.60;99.90
1948;DHT22;974;52.400;9.818;2023-12-04T04:17:51;-0.60;99.90
1948;DHT22;974;52.400;9.818;2023-12-04T04:20:16;-0.60;99.90
1948;DHT22;974;52.400;9.818;2023-12-04T04:22:42;-0.60;99.90
1948;DHT22;974;52.400;9.818;2023-12-04T04:25:11;-0.60;99.90
1948;DHT22;974;52.400;9.818;2023-12-04T04:27:36;-0.60;99.90
1948;DHT22;974;52.400;9.818;2023-12-04T04:30:02;-0.60;99.90
1948;DHT22;974;52.400;9.818;2023-12-04T04:32:28;-0.60;99.90
1948;DHT22;974;52.400;9.818;2023-12-04T04:34:53;-0.50;99.90
1948;DHT22;974;52.400;9.818;2023-12-04T04:37:22;-0.40;99.90
1948;DHT22;974;52.400;9.818;2023-12-04T04:39:47;-0.50;99.90
1948;DHT22;974;52.400;9.818;2023-12-04T04:42:14;-0.40;99.90
1948;DHT22;974;52.400;9.818;2023-12-04T04:44:39;-0.30;99.90
1948;DHT22;974;52.400;9.818;2023-12-04T04:47:05;-0.50;99.90
1948;DHT22;974;52.400;9.818;2023-12-04T04:49:30;-0.40;99.90
1948;DHT22;974;52.400;9.818;2023-12-04T04:51:56;-0.60;99.90
1948;DHT22;974;52.400;9.818;2023-12-04T04:54:22;-0.50;99.90
1948;DHT22;974;52.400;9.818;2023-12-04T04:56:47;-0.60;99.90
1948;DHT22;974;52.400;9.818;2023-12-04T04:59:13;-0.50;99.90
1948;DHT22;974;52.400;9.818;2023-12-04T05:01:38;-0.50;99.90
1948;DHT22;974;52.400;9.818;2023-12-04T05:04:04;-0.40;99.90
1948;DHT22;974;52.400;9.818;2023-12-04T05:06:29;-0.30;99.90
1948;DHT22;974;52.400;9.818;2023-12-04T05:08:55;-0.40;99.90
1948;DHT22;974;52.400;9.818;2023-12-04T05:11:24;-0.50;99.90
1948;DHT22;974;52.400;9.818;2023-12-04T05:13:49;-0.60;99.90
1948;DHT22;974;52.400;9.818;2023-12-04T05:16:15;-0.60;99.90
1948;DHT22;974;52.400;9.818;2023-12-04T05:18:40;-0.40;99.90
1948;DHT22;974;52.400;9.818;2023-12-04T05:21:12;-0.40;99.90
1948;DHT22;974;52.400;9.818;2023-12-04T05:23:38;-0.30;99.90
1948;DHT22;974;52.400;9.818;2023-12-04T05:26:05;-0.20;99.90
1948;DHT22;974;52.400;9.818;2023-12-04T05:28:31;-0.60;99.90
1948;DHT22;974;52.400;9.818;2023-12-04T05:30:56;-0.30;99.90
1948;DHT22;974;52.400;9.818;2023-12-04T05:33:22;-0.30;99.90
1948;DHT22;974;52.400;9.818;2023-12-04T05:35:50;-0.30;99.90
1948;DHT22;974;52.400;9.818;2023-12-04T05:38:19;-0.30;99.90
1948;DHT22;974;52.400;9.818;2023-12-04T05:40:44;-0.30;99.90
1948;DHT22;974;52.400;9.818;2023-12-04T05:43:10;-0.40;99.90
1948;DHT22;974;52.400;9.818;2023-12-04T05:45:36;-0.40;99.90
1948;DHT22;974;52.400;9.818;2023-12-04T05:48:01;-0.40;99.90
1948;DHT22;974;52.400;9.818;2023-12-04T05:50:31;-0.30;99.90
1948;DHT22;974;52.400;9.818;2023-12-04T05:52:56;-0.30;99.90
1948;DHT22;974;52.400;9.818;2023-12-04T05:55:22;-0.30;99.90
1948;DHT22;974;52.400;9.818;2023-12-04T05:57:47;-0.30;99.90
1948;DHT22;974;52.400;9.818;2023-12-04T06:00:13;-0.30;99.90
1948;DHT22;974;52.400;9.818;2023-12-04T06:02:39;-0.20;99.90
1948;DHT22;974;52.400;9.818;2023-12-04T06:05:06;-0.20;99.90
1948;DHT22;974;52.400;9.818;2023-12-04T06:07:31;-0.20;99.90
1948;DHT22;974;52.400;9.818;2023-12-04T06:09:57;-0.30;99.90
1948;DHT22;974;52.400;9.818;2023-12-04T06:12:22;-0.20;99.90
1948;DHT22;974;52.400;9.818;2023-12-04T06:14:48;-0.20;99.90
1948;DHT22;974;52.400;9.818;2023-12-04T06:17:13;-0.20;99.90
1948;DHT22;974;52.400;9.818;2023-12-04T06:19:39;-0.10;99.90
1948;DHT22;974;52.400;9.818;2023-12-04T06:22:05;-0.20;99.90
1948;DHT22;974;52.400;9.818;2023-12-04T06:24:34;-0.20;99.90
1948;DHT22;974;52.400;9.818;2023-12-04T06:26:59;-0.20;99.90
1948;DHT22;974;52.400;9.818;2023-12-04T06:29:25;-0.10;99.90
1948;DHT22;974;52.400;9.818;2023-12-04T06:31:51;-0.10;99.90
1948;DHT22;974;52.400;9.818;2023-12-04T06:34:20;-0.10;99.90
1948;DHT22;974;52.400;9.818;2023-12-04T06:36:45;-0.20;99.90
1948;DHT22;974;52.400;9.818;2023-12-04T06:39:12;-0.20;99.90
1948;DHT22;974;52.400;9.818;2023-12-04T06:41:39;-0.10;99.90
1948;DHT22;974;52.400;9.818;2023-12-04T06:44:05;-0.10;99.90
1948;DHT22;974;52.400;9.818;2023-12-04T06:46:37;-0.10;99.90
1948;DHT22;974;52.400;9.818;2023-12-04T06:49:04;-0.10;99.90
1948;DHT22;974;52.400;9.818;2023-12-04T06:51:30;-0.10;99.90
1948;DHT22;974;52.400;9.818;2023-12-04T06:53:56;0.00;99.90
1948;DHT22;974;52.400;9.818;2023-12-04T06:56:21;-0.10;99.90
1948;DHT22;974;52.400;9.818;2023-12-04T06:58:46;-0.40;99.90
1948;DHT22;974;52.400;9.818;2023-12-04T07:01:12;0.00;99.90
1948;DHT22;974;52.400;9.818;2023-12-04T07:03:37;-0.10;99.90
1948;DHT22;974;52.400;9.818;2023-12-04T07:06:03;0.00;99.90
1948;DHT22;974;52.400;9.818;2023-12-04T07:08:29;-0.20;99.90
1948;DHT22;974;52.400;9.818;2023-12-04T07:10:55;-0.10;99.90
1948;DHT22;974;52.400;9.818;2023-12-04T07:13:20;-0.10;99.90
1948;DHT22;974;52.400;9.818;2023-12-04T07:15:46;-0.20;99.90
1948;DHT22;974;52.400;9.818;2023-12-04T07:18:12;-0.10;99.90
1948;DHT22;974;52.400;9.818;2023-12-04T07:20:37;0.00;99.90
1948;DHT22;974;52.400;9.818;2023-12-04T07:23:03;0.00;99.90
1948;DHT22;974;52.400;9.818;2023-12-04T07:25:28;0.10;99.90
1948;DHT22;974;52.400;9.818;2023-12-04T07:27:54;0.00;99.90
1948;DHT22;974;52.400;9.818;2023-12-04T07:30:22;0.00;99.90
1948;DHT22;974;52.400;9.818;2023-12-04T07:32:48;0.00;99.90
1948;DHT22;974;52.400;9.818;2023-12-04T07:35:13;-0.10;99.90
1948;DHT22;974;52.400;9.818;2023-12-04T07:37:38;0.00;99.90
1948;DHT22;974;52.400;9.818;2023-12-04T07:40:04;0.10;99.90
1948;DHT22;974;52.400;9.818;2023-12-04T07:42:31;0.00;99.90
1948;DHT22;974;52.400;9.818;2023-12-04T07:44:56;0.00;99.90
1948;DHT22;974;52.400;9.818;2023-12-04T07:47:23;0.00;99.90
1948;DHT22;974;52.400;9.818;2023-12-04T07:49:48;0.00;99.90
1948;DHT22;974;52.400;9.818;2023-12-04T07:52:14;0.00;99.90
1948;DHT22;974;52.400;9.818;2023-12-04T07:54:40;0.00;99.90
1948;DHT22;974;52.400;9.818;2023-12-04T07:57:05;0.10;99.90
1948;DHT22;974;52.400;9.818;2023-12-04T07:59:31;0.20;99.90
1948;DHT22;974;52.400;9.818;2023-12-04T08:01:56;0.10;99.90
1948;DHT22;974;52.400;9.818;2023-12-04T08:04:22;0.00;99.90
1948;DHT22;974;52.400;9.818;2023-12-04T08:06:47;0.10;99.90
1948;DHT22;974;52.400;9.818;2023-12-04T08:09:13;0.20;99.90
1948;DHT22;974;52.400;9.818;2023-12-04T08:11:38;0.10;99.90
1948;DHT22;974;52.400;9.818;2023-12-04T08:14:05;-0.10;99.90
1948;DHT22;974;52.400;9.818;2023-12-04T08:16:30;0.10;99.90
1948;DHT22;974;52.400;9.818;2023-12-04T08:18:56;0.00;99.90
1948;DHT22;974;52.400;9.818;2023-12-04T08:21:24;0.00;99.90
1948;DHT22;974;52.400;9.818;2023-12-04T08:23:50;0.10;99.90
1948;DHT22;974;52.400;9.818;2023-12-04T08:26:21;0.10;99.90
1948;DHT22;974;52.400;9.818;2023-12-04T08:28:47;0.10;99.90
1948;DHT22;974;52.400;9.818;2023-12-04T08:31:13;0.00;99.90
1948;DHT22;974;52.400;9.818;2023-12-04T08:33:38;0.00;99.90
1948;DHT22;974;52.400;9.818;2023-12-04T08:36:04;0.10;99.90
1948;DHT22;974;52.400;9.818;2023-12-04T08:38:30;0.20;99.90
1948;DHT22;974;52.400;9.818;2023-12-04T08:40:55;0.10;99.90
1948;DHT22;974;52.400;9.818;2023-12-04T08:43:21;0.00;99.90
1948;DHT22;974;52.400;9.818;2023-12-04T08:45:46;0.10;99.90
1948;DHT22;974;52.400;9.818;2023-12-04T08:48:12;0.00;99.90
1948;DHT22;974;52.400;9.818;2023-12-04T08:50:37;-0.10;99.90
1948;DHT22;974;52.400;9.818;2023-12-04T08:53:03;-0.10;99.90
1948;DHT22;974;52.400;9.818;2023-12-04T08:55:29;-0.10;99.90
1948;DHT22;974;52.400;9.818;2023-12-04T08:57:55;-0.10;99.90
1948;DHT22;974;52.400;9.818;2023-12-04T09:00:21;-0.10;99.90
1948;DHT22;974;52.400;9.818;2023-12-04T09:02:52;0.00;99.90
1948;DHT22;974;52.400;9.818;2023-12-04T09:05:18;0.00;99.90
1948;DHT22;974;52.400;9.818;2023-12-04T09:07:43;0.10;99.90
1948;DHT22;974;52.400;9.818;2023-12-04T09:10:09;0.10;99.90
1948;DHT22;974;52.400;9.818;2023-12-04T09:12:34;0.10;99.90
1948;DHT22;974;52.400;9.818;2023-12-04T09:15:02;0.10;99.90
1948;DHT22;974;52.400;9.818;2023-12-04T09:17:31;0.20;99.90
1948;DHT22;974;52.400;9.818;2023-12-04T09:19:56;0.20;99.90
1948;DHT22;974;52.400;9.818;2023-12-04T09:22:22;0.10;99.90
1948;DHT22;974;52.400;9.818;2023-12-04T09:24:47;0.30;99.90
1948;DHT22;974;52.400;9.818;2023-12-04T09:27:12;0.20;99.90
1948;DHT22;974;52.400;9.818;2023-12-04T09:29:38;0.20;99.90
1948;DHT22;974;52.400;9.818;2023-12-04T09:32:04;0.30;99.90
1948;DHT22;974;52.400;9.818;2023-12-04T09:34:29;0.40;99.90
1948;DHT22;974;52.400;9.818;2023-12-04T09:36:55;0.40;99.90
1948;DHT22;974;52.400;9.818;2023-12-04T09:39:20;0.30;99.90
1948;DHT22;974;52.400;9.818;2023-12-04T09:41:46;0.30;99.90
1948;DHT22;974;52.400;9.818;2023-12-04T09:44:12;0.40;99.90
1948;DHT22;974;52.400;9.818;2023-12-04T09:46:38;0.60;99.90
1948;DHT22;974;52.400;9.818;2023-12-04T09:49:04;0.50;99.90
1948;DHT22;974;52.400;9.818;2023-12-04T09:51:30;0.40;99.90
1948;DHT22;974;52.400;9.818;2023-12-04T09:53:57;0.40;99.90
1948;DHT22;974;52.400;9.818;2023-12-04T09:56:29;0.50;99.90
1948;DHT22;974;52.400;9.818;2023-12-04T09:58:59;0.50;99.90
1948;DHT22;974;52.400;9.818;2023-12-04T10:01:31;0.30;99.90
1948;DHT22;974;52.400;9.818;2023-12-04T10:03:58;0.40;99.90
1948;DHT22;974;52.400;9.818;2023-12-04T10:06:27;0.50;99.90
1948;DHT22;974;52.400;9.818;2023-12-04T10:08:58;0.50;99.90
1948;DHT22;974;52.400;9.818;2023-12-04T10:11:24;0.40;99.90
1948;DHT22;974;52.400;9.818;2023-12-04T10:13:52;0.40;99.90
1948;DHT22;974;52.400;9.818;2023-12-04T10:16:37;0.30;99.90
1948;DHT22;974;52.400;9.818;2023-12-04T10:19:26;0.40;99.90
1948;DHT22;974;52.400;9.818;2023-12-04T10:21:52;0.40;99.90
1948;DHT22;974;52.400;9.818;2023-12-04T10:24:38;0.50;99.90
1948;DHT22;974;52.400;9.818;2023-12-04T10:27:05;0.60;99.90
1948;DHT22;974;52.400;9.818;2023-12-04T10:29:46;0.80;99.90
1948;DHT22;974;52.400;9.818;2023-12-04T10:32:13;0.70;99.90
1948;DHT22;974;52.400;9.818;2023-12-04T10:34:41;0.70;99.90
1948;DHT22;974;52.400;9.818;2023-12-04T10:37:07;0.70;99.90
1948;DHT22;974;52.400;9.818;2023-12-04T10:39:51;0.70;99.90
1948;DHT22;974;52.400;9.818;2023-12-04T10:42:27;0.60;99.90
1948;DHT22;974;52.400;9.818;2023-12-04T10:44:55;0.80;99.90
1948;DHT22;974;52.400;9.818;2023-12-04T10:47:22;0.80;99.90
1948;DHT22;974;52.400;9.818;2023-12-04T10:49:49;1.00;99.90
1948;DHT22;974;52.400;9.818;2023-12-04T10:52:16;1.00;99.90
1948;DHT22;974;52.400;9.818;2023-12-04T10:54:41;0.90;99.90
1948;DHT22;974;52.400;9.818;2023-12-04T10:57:08;0.90;99.90
1948;DHT22;974;52.400;9.818;2023-12-04T10:59:38;0.90;99.90
1948;DHT22;974;52.400;9.818;2023-12-04T11:02:05;0.90;99.90
1948;DHT22;974;52.400;9.818;2023-12-04T11:04:35;0.80;99.90
1948;DHT22;974;52.400;9.818;2023-12-04T11:07:02;0.80;99.90
1948;DHT22;974;52.400;9.818;2023-12-04T11:09:35;0.80;99.90
1948;DHT22;974;52.400;9.818;2023-12-04T11:12:05;0.80;99.90
1948;DHT22;974;52.400;9.818;2023-12-04T11:14:39;0.90;99.90
1948;DHT22;974;52.400;9.818;2023-12-04T11:17:09;0.80;99.90
1948;DHT22;974;52.400;9.818;2023-12-04T11:19:47;0.90;99.90
1948;DHT22;974;52.400;9.818;2023-12-04T11:22:15;0.80;99.90
1948;DHT22;974;52.400;9.818;2023-12-04T11:24:46;0.90;99.90
1948;DHT22;974;52.400;9.818;2023-12-04T11:27:13;0.80;99.90
1948;DHT22;974;52.400;9.818;2023-12-04T11:29:39;0.80;99.90
1948;DHT22;974;52.400;9.818;2023-12-04T11:32:06;0.90;99.90
1948;DHT22;974;52.400;9.818;2023-12-04T11:34:32;0.90;99.90
1948;DHT22;974;52.400;9.818;2023-12-04T11:36:57;0.80;99.90
1948;DHT22;974;52.400;9.818;2023-12-04T11:39:25;0.80;99.90
1948;DHT22;974;52.400;9.818;2023-12-04T11:41:50;0.80;99.90
1948;DHT22;974;52.400;9.818;2023-12-04T11:44:17;0.70;99.90
1948;DHT22;974;52.400;9.818;2023-12-04T11:46:56;0.80;99.90
1948;DHT22;974;52.400;9.818;2023-12-04T11:52:00;1.10;99.90
1948;DHT22;974;52.400;9.818;2023-12-04T11:54:27;0.90;99.90
1948;DHT22;974;52.400;9.818;2023-12-04T11:59:40;0.90;99.90
1948;DHT22;974;52.400;9.818;2023-12-04T12:02:08;0.90;99.90
1948;DHT22;974;52.400;9.818;2023-12-04T12:04:33;0.90;99.90
1948;DHT22;974;52.400;9.818;2023-12-04T12:07:00;1.00;99.90
1948;DHT22;974;52.400;9.818;2023-12-04T12:09:28;0.90;99.90
1948;DHT22;974;52.400;9.818;2023-12-04T12:11:54;1.00;99.90
1948;DHT22;974;52.400;9.818;2023-12-04T12:14:21;1.30;99.90
1948;DHT22;974;52.400;9.818;2023-12-04T12:16:49;1.10;99.90
1948;DHT22;974;52.400;9.818;2023-12-04T12:19:15;1.00;99.90
1948;DHT22;974;52.400;9.818;2023-12-04T12:21:42;0.90;99.90
1948;DHT22;974;52.400;9.818;2023-12-04T12:24:11;0.90;99.90
1948;DHT22;974;52.400;9.818;2023-12-04T12:26:37;1.00;99.90
1948;DHT22;974;52.400;9.818;2023-12-04T12:29:03;1.00;99.90
1948;DHT22;974;52.400;9.818;2023-12-04T12:31:32;1.00;99.90
1948;DHT22;974;52.400;9.818;2023-12-04T12:33:57;1.00;99.90
1948;DHT22;974;52.400;9.818;2023-12-04T12:36:23;0.90;99.90
1948;DHT22;974;52.400;9.818;2023-12-04T12:38:51;1.00;99.90
1948;DHT22;974;52.400;9.818;2023-12-04T12:41:17;1.00;99.90
1948;DHT22;974;52.400;9.818;2023-12-04T12:43:43;1.00;99.90
1948;DHT22;974;52.400;9.818;2023-12-04T12:46:10;1.10;99.90
1948;DHT22;974;52.400;9.818;2023-12-04T12:48:36;1.00;99.90
1948;DHT22;974;52.400;9.818;2023-12-04T12:51:07;1.00;99.90
1948;DHT22;974;52.400;9.818;2023-12-04T12:53:33;1.00;99.90
1948;DHT22;974;52.400;9.818;2023-12-04T12:56:03;1.00;99.90
1948;DHT22;974;52.400;9.818;2023-12-04T12:58:31;1.00;99.90
1948;DHT22;974;52.400;9.818;2023-12-04T13:00:59;1.10;99.90
1948;DHT22;974;52.400;9.818;2023-12-04T13:03:25;1.00;99.90
1948;DHT22;974;52.400;9.818;2023-12-04T13:05:50;1.00;99.90
1948;DHT22;974;52.400;9.818;2023-12-04T13:08:18;1.10;99.90
1948;DHT22;974;52.400;9.818;2023-12-04T13:10:44;1.00;99.90
1948;DHT22;974;52.400;9.818;2023-12-04T13:13:13;1.00;99.90
1948;DHT22;974;52.400;9.818;2023-12-04T13:15:59;1.10;99.90
1948;DHT22;974;52.400;9.818;2023-12-04T13:18:25;1.10;99.90
1948;DHT22;974;52.400;9.818;2023-12-04T13:20:50;1.10;99.90
1948;DHT22;974;52.400;9.818;2023-12-04T13:23:16;1.10;99.90
1948;DHT22;974;52.400;9.818;2023-12-04T13:25:41;1.10;99.90
1948;DHT22;974;52.400;9.818;2023-12-04T13:28:07;1.00;99.90
1948;DHT22;974;52.400;9.818;2023-12-04T13:30:32;1.00;99.90
1948;DHT22;974;52.400;9.818;2023-12-04T13:33:00;1.00;99.90
1948;DHT22;974;52.400;9.818;2023-12-04T13:35:25;1.10;99.90
1948;DHT22;974;52.400;9.818;2023-12-04T13:37:51;1.00;99.90
1948;DHT22;974;52.400;9.818;2023-12-04T13:40:21;1.00;99.90
1948;DHT22;974;52.400;9.818;2023-12-04T13:42:46;1.00;99.90
1948;DHT22;974;52.400;9.818;2023-12-04T13:45:44;1.10;99.90
1948;DHT22;974;52.400;9.818;2023-12-04T13:48:09;1.20;99.90
1948;DHT22;974;52.400;9.818;2023-12-04T13:50:35;1.10;99.90
1948;DHT22;974;52.400;9.818;2023-12-04T13:53:00;1.10;99.90
1948;DHT22;974;52.400;9.818;2023-12-04T13:55:26;1.20;99.90
1948;DHT22;974;52.400;9.818;2023-12-04T13:58:11;1.10;99.90
1948;DHT22;974;52.400;9.818;2023-12-04T14:00:56;1.10;99.90
1948;DHT22;974;52.400;9.818;2023-12-04T14:03:22;1.20;99.90
1948;DHT22;974;52.400;9.818;2023-12-04T14:05:47;1.20;99.90
1948;DHT22;974;52.400;9.818;2023-12-04T14:08:13;1.10;99.90
1948;DHT22;974;52.400;9.818;2023-12-04T14:10:38;1.20;99.90
1948;DHT22;974;52.400;9.818;2023-12-04T14:13:04;1.20;99.90
1948;DHT22;974;52.400;9.818;2023-12-04T14:15:29;1.20;99.90
1948;DHT22;974;52.400;9.818;2023-12-04T14:17:54;1.20;99.90
1948;DHT22;974;52.400;9.818;2023-12-04T14:20:20;1.20;99.90
1948;DHT22;974;52.400;9.818;2023-12-04T14:22:47;1.20;99.90
1948;DHT22;974;52.400;9.818;2023-12-04T14:25:13;1.20;99.90
1948;DHT22;974;52.400;9.818;2023-12-04T14:27:39;1.00;99.90
1948;DHT22;974;52.400;9.818;2023-12-04T14:30:11;0.90;99.90
1948;DHT22;974;52.400;9.818;2023-12-04T14:32:36;1.00;99.90
1948;DHT22;974;52.400;9.818;2023-12-04T14:35:05;1.10;99.90
1948;DHT22;974;52.400;9.818;2023-12-04T14:37:30;0.80;99.90
1948;DHT22;974;52.400;9.818;2023-12-04T14:39:56;1.10;99.90
1948;DHT22;974;52.400;9.818;2023-12-04T14:42:25;1.10;99.90
1948;DHT22;974;52.400;9.818;2023-12-04T14:44:50;1.10;99.90
1948;DHT22;974;52.400;9.818;2023-12-04T14:47:19;1.10;99.90
1948;DHT22;974;52.400;9.818;2023-12-04T14:49:44;0.90;99.90
1948;DHT22;974;52.400;9.818;2023-12-04T14:52:11;1.00;99.90
1948;DHT22;974;52.400;9.818;2023-12-04T14:54:37;1.10;99.90
1948;DHT22;974;52.400;9.818;2023-12-04T14:57:18;1.10;99.90
1948;DHT22;974;52.400;9.818;2023-12-04T15:00:10;1.00;99.90
1948;DHT22;974;52.400;9.818;2023-12-04T15:03:11;1.10;99.90
1948;DHT22;974;52.400;9.818;2023-12-04T15:05:51;1.10;99.90
1948;DHT22;974;52.400;9.818;2023-12-04T15:08:35;1.10;99.90
1948;DHT22;974;52.400;9.818;2023-12-04T15:11:19;1.00;99.90
1948;DHT22;974;52.400;9.818;2023-12-04T15:14:10;1.00;99.90
1948;DHT22;974;52.400;9.818;2023-12-04T15:16:48;1.00;99.90
1948;DHT22;974;52.400;9.818;2023-12-04T15:19:19;1.00;99.90
1948;DHT22;974;52.400;9.818;2023-12-04T15:22:01;1.00;99.90
1948;DHT22;974;52.400;9.818;2023-12-04T15:24:27;1.00;99.90
1948;DHT22;974;52.400;9.818;2023-12-04T15:26:55;0.90;99.90
1948;DHT22;974;52.400;9.818;2023-12-04T15:29:23;0.90;99.90
1948;DHT22;974;52.400;9.818;2023-12-04T15:31:50;1.00;99.90
1948;DHT22;974;52.400;9.818;2023-12-04T15:34:15;1.00;99.90
1948;DHT22;974;52.400;9.818;2023-12-04T15:36:41;1.00;99.90
1948;DHT22;974;52.400;9.818;2023-12-04T15:39:09;1.10;99.90
1948;DHT22;974;52.400;9.818;2023-12-04T15:41:35;1.00;99.90
1948;DHT22;974;52.400;9.818;2023-12-04T15:44:01;0.90;99.90
1948;DHT22;974;52.400;9.818;2023-12-04T15:46:27;0.90;99.90
1948;DHT22;974;52.400;9.818;2023-12-04T15:48:54;0.90;99.90
1948;DHT22;974;52.400;9.818;2023-12-04T15:51:19;0.90;99.90
1948;DHT22;974;52.400;9.818;2023-12-04T15:53:48;0.80;99.90
1948;DHT22;974;52.400;9.818;2023-12-04T15:56:16;0.90;99.90
1948;DHT22;974;52.400;9.818;2023-12-04T15:58:44;0.80;99.90
1948;DHT22;974;52.400;9.818;2023-12-04T16:01:10;0.90;99.90
1948;DHT22;974;52.400;9.818;2023-12-04T16:03:35;0.80;99.90
1948;DHT22;974;52.400;9.818;2023-12-04T16:06:01;0.70;99.90
1948;DHT22;974;52.400;9.818;2023-12-04T16:08:27;0.80;99.90
1948;DHT22;974;52.400;9.818;2023-12-04T16:10:52;0.80;99.90
1948;DHT22;974;52.400;9.818;2023-12-04T16:13:18;0.80;99.90
1948;DHT22;974;52.400;9.818;2023-12-04T16:15:47;0.80;99.90
1948;DHT22;974;52.400;9.818;2023-12-04T16:18:14;0.70;99.90
1948;DHT22;974;52.400;9.818;2023-12-04T16:20:40;0.70;99.90
1948;DHT22;974;52.400;9.818;2023-12-04T16:23:06;0.70;99.90
1948;DHT22;974;52.400;9.818;2023-12-04T16:25:32;0.60;99.90
1948;DHT22;974;52.400;9.818;2023-12-04T16:27:58;0.70;99.90
1948;DHT22;974;52.400;9.818;2023-12-04T16:30:24;0.70;99.90
1948;DHT22;974;52.400;9.818;2023-12-04T16:32:59;0.60;99.90